Time;durP1;ratioP1;P1;durP2;ratioP2;P2;SDS_P1;SDS_P2;PMS_P1;PMS_P2;Temp;Humidity;BMP_temperature;BMP_pressure;BME280_temperature;BME280_humidity;BME280_pressure;Samples;Min_cycle;Max_cycle;Signal;HPM_P1;HPM_P2
2022/03/23 00:02:15;;;;;;;27.30;13.18;;;-0.90;1.00;;;0.14;87.90;100909.41;4982071;28;129564;-74
2022/03/23 00:04:45;;;;;;;23.80;11.98;;;-0.90;1.00;;;0.11;87.83;100904.50;4980417;28;129417;-71
2022/03/23 00:07:13;;;;;;;25.35;12.32;;;-0.90;1.00;;;0.10;87.53;100897.53;4979420;28;122074;-74
2022/03/23 00:09:42;;;;;;;31.60;13.88;;;-1.00;1.00;;;0.09;87.67;100898.53;4980228;28;122051;-73
2022/03/23 00:12:11;;;;;;;33.53;13.95;;;-1.00;1.00;;;0.06;87.75;100902.44;4979876;28;130410;-73
2022/03/23 00:14:39;;;;;;;27.55;13.75;;;-1.00;1.00;;;0.02;88.19;100903.06;4980018;28;129418;-72
2022/03/23 00:17:09;;;;;;;29.58;13.52;;;-1.00;1.00;;;0.01;87.84;100894.25;4980456;28;119620;-73
2022/03/23 00:19:38;;;;;;;30.30;13.70;;;-1.10;1.00;;;-0.04;87.94;100894.84;4980519;28;119252;-73
2022/03/23 00:22:07;;;;;;;28.42;14.00;;;-1.10;1.00;;;-0.04;88.04;100889.53;4981981;28;129379;-74
2022/03/23 00:24:35;;;;;;;34.47;18.15;;;-1.10;1.00;;;-0.05;88.35;100890.56;4981765;28;130215;-74
2022/03/23 00:27:05;;;;;;;35.58;18.27;;;-1.10;1.00;;;-0.08;89.13;100885.66;4980263;28;119696;-76
2022/03/23 00:29:33;;;;;;;32.42;16.10;;;-1.10;1.00;;;-0.06;89.09;100880.91;4980175;28;119397;-73
2022/03/23 00:32:02;;;;;;;34.05;15.70;;;-1.10;1.00;;;-0.08;88.69;100876.78;4978580;28;129881;-73
2022/03/23 00:34:35;;;;;;;33.75;15.43;;;-1.10;1.00;;;-0.11;88.35;100875.38;4979839;28;129227;-74
2022/03/23 00:37:04;;;;;;;24.08;13.45;;;-1.20;1.00;;;-0.14;88.59;100878.47;4980540;28;119953;-74
2022/03/23 00:39:33;;;;;;;28.13;13.75;;;-1.30;1.00;;;-0.18;88.62;100874.56;4980098;28;119273;-74
2022/03/23 00:42:01;;;;;;;28.00;14.63;;;-1.30;1.00;;;-0.20;88.98;100873.94;4979394;28;130160;-73
2022/03/23 00:44:30;;;;;;;35.15;16.02;;;-1.30;1.00;;;-0.25;89.40;100868.41;4981387;28;129091;-73
2022/03/23 00:46:59;;;;;;;28.95;16.08;;;-1.30;1.00;;;-0.37;89.85;100871.69;4981725;28;119306;-74
2022/03/23 00:49:27;;;;;;;29.92;15.32;;;-1.30;1.00;;;-0.40;90.31;100864.09;4982319;28;119297;-74
2022/03/23 00:51:58;;;;;;;32.25;15.85;;;-1.30;1.00;;;-0.41;90.32;100858.97;4964874;28;128767;-75
2022/03/23 00:54:26;;;;;;;30.98;15.77;;;-1.40;1.00;;;-0.42;90.17;100868.81;4979331;28;129772;-73
2022/03/23 00:56:55;;;;;;;29.13;13.80;;;-1.40;1.00;;;-0.43;89.86;100856.50;4980531;28;121507;-72
2022/03/23 00:59:24;;;;;;;25.80;13.15;;;-1.50;1.00;;;-0.47;90.00;100865.94;4978674;28;122591;-75
2022/03/23 01:01:53;;;;;;;27.50;13.65;;;-1.50;1.00;;;-0.52;90.42;100857.72;4981255;28;129487;-76
2022/03/23 01:04:22;;;;;;;28.63;13.30;;;-1.50;1.00;;;-0.53;90.67;100861.44;4982339;28;128808;-75
2022/03/23 01:06:52;;;;;;;26.23;14.00;;;-1.50;1.00;;;-0.49;90.31;100857.31;4979487;28;119686;-73
2022/03/23 01:09:23;;;;;;;26.92;13.73;;;-1.50;1.00;;;-0.48;90.23;100864.31;4981623;28;119007;-74
2022/03/23 01:11:52;;;;;;;29.65;15.48;;;-1.50;1.00;;;-0.49;90.05;100857.31;4979481;28;130785;-75
2022/03/23 01:14:24;;;;;;;23.38;14.02;;;-1.50;1.00;;;-0.55;90.60;100852.81;4981393;28;129319;-75
2022/03/23 01:16:54;;;;;;;28.67;14.98;;;-1.50;1.00;;;-0.61;91.24;100858.94;4979687;28;119418;-75
2022/03/23 01:19:25;;;;;;;29.20;15.73;;;-1.50;1.00;;;-0.60;91.15;100856.09;4978099;28;120365;-75
2022/03/23 01:21:54;;;;;;;22.17;14.65;;;-1.50;1.00;;;-0.60;91.35;100849.94;4979754;28;129505;-74
2022/03/23 01:24:24;;;;;;;27.73;16.17;;;-1.60;1.00;;;-0.64;91.88;100854.03;4980907;28;128469;-76
2022/03/23 01:26:54;;;;;;;29.23;14.60;;;-1.50;1.00;;;-0.61;91.84;100845.63;4979746;28;120031;-75
2022/03/23 01:29:24;;;;;;;29.20;14.90;;;-1.60;1.00;;;-0.62;91.40;100841.34;4979340;28;119142;-74
2022/03/23 01:31:52;;;;;;;29.65;14.23;;;-1.60;1.00;;;-0.61;91.61;100843.78;4977786;28;129748;-76
2022/03/23 01:34:20;;;;;;;27.50;14.27;;;-1.60;1.00;;;-0.63;91.22;100834.34;4978973;28;131498;-74
2022/03/23 01:36:51;;;;;;;27.00;15.02;;;-1.60;1.00;;;-0.61;91.31;100842.94;4979788;28;120363;-74
2022/03/23 01:39:21;;;;;;;30.60;14.77;;;-1.70;1.00;;;-0.61;90.70;100833.13;4981851;28;118222;-75
2022/03/23 01:41:50;;;;;;;27.15;13.88;;;-1.70;1.00;;;-0.62;90.77;100831.47;4978236;28;130830;-76
2022/03/23 01:44:23;;;;;;;32.90;14.82;;;-1.70;1.00;;;-0.66;91.35;100832.09;4980287;28;130137;-75
2022/03/23 01:47:06;;;;;;;33.80;16.88;;;-1.70;1.00;;;-0.68;91.00;100834.16;4978523;28;121928;-75
2022/03/23 01:49:36;;;;;;;29.55;16.63;;;-1.70;1.00;;;-0.66;91.08;100826.75;4966237;28;122637;-74
2022/03/23 01:52:08;;;;;;;27.67;15.45;;;-1.80;1.00;;;-0.67;91.13;100817.09;4964907;28;129091;-72
2022/03/23 01:54:39;;;;;;;28.20;14.40;;;-1.80;1.00;;;-0.68;91.22;100826.16;4964247;28;128824;-75
2022/03/23 01:57:13;;;;;;;28.15;14.75;;;-1.80;1.00;;;-0.74;91.87;100817.13;4981081;28;119105;-72
2022/03/23 01:59:42;;;;;;;25.10;14.32;;;-1.80;1.00;;;-0.74;91.77;100817.91;4988778;28;119488;-72
2022/03/23 02:02:11;;;;;;;26.20;14.68;;;-1.80;1.00;;;-0.73;91.99;100811.56;4966687;28;128578;-74
2022/03/23 02:04:59;;;;;;;27.25;14.38;;;-1.80;1.00;;;-0.77;92.03;100812.19;4981902;28;129238;-74
2022/03/23 02:07:27;;;;;;;29.42;14.00;;;-1.80;1.00;;;-0.79;92.16;100812.38;4964105;28;118359;-74
2022/03/23 02:09:57;;;;;;;27.60;14.27;;;-1.80;1.00;;;-0.82;92.70;100810.13;4980817;28;119094;-71
2022/03/23 02:12:40;;;;;;;27.65;15.13;;;-1.80;1.00;;;-0.83;92.48;100813.81;4979553;28;129635;-74
2022/03/23 02:15:16;;;;;;;26.67;14.38;;;-1.80;1.00;;;-0.86;92.46;100808.88;4979493;28;129641;-74
2022/03/23 02:17:46;;;;;;;23.95;14.32;;;-1.80;1.00;;;-0.96;93.98;100803.16;5021583;28;119605;-74
2022/03/23 02:20:16;;;;;;;29.35;15.40;;;-1.70;1.00;;;-0.99;94.58;100803.56;4986840;28;119230;-74
2022/03/23 02:22:46;;;;;;;28.77;15.20;;;-1.70;1.00;;;-0.94;94.04;100806.44;5016951;28;130042;-75
2022/03/23 02:25:20;;;;;;;31.77;16.30;;;-1.80;1.00;;;-0.95;93.95;100810.09;5003251;28;129318;-74
2022/03/23 02:27:48;;;;;;;35.53;16.45;;;-1.80;1.00;;;-1.01;93.81;100803.75;5018594;28;119672;-73
2022/03/23 02:30:17;;;;;;;33.00;15.77;;;-1.80;1.00;;;-1.04;94.05;100800.66;5019137;28;119502;-73
2022/03/23 02:32:46;;;;;;;33.05;16.08;;;-1.90;1.00;;;-1.12;93.98;100794.53;5002426;28;129620;-74
2022/03/23 02:35:15;;;;;;;33.15;15.27;;;-1.90;1.00;;;-1.15;94.14;100800.25;5000221;28;130044;-74
2022/03/23 02:37:45;;;;;;;28.92;15.52;;;-2.00;1.00;;;-1.14;93.37;100796.56;5006360;28;121076;-76
2022/03/23 02:40:14;;;;;;;27.75;15.00;;;-2.00;1.00;;;-1.15;93.47;100794.94;5003922;28;122535;-74
2022/03/23 02:42:43;;;;;;;31.15;16.20;;;-2.10;1.00;;;-1.15;93.53;100783.47;5021637;28;129806;-74
2022/03/23 02:45:12;;;;;;;28.15;14.70;;;-2.10;1.00;;;-1.19;93.73;100793.69;5024224;28;129444;-74
2022/03/23 02:47:41;;;;;;;30.92;16.00;;;-2.10;1.00;;;-1.21;93.77;100795.72;5022099;28;119731;-74
2022/03/23 02:50:11;;;;;;;25.95;14.95;;;-2.10;1.00;;;-1.24;93.73;100790.81;5025329;28;119364;-75
2022/03/23 03:01:52;;;;;;;30.70;15.75;;;-2.10;1.50;;;-1.23;93.71;100786.28;5021449;28;129924;-76
2022/03/23 03:04:14;;;;;;;32.17;15.85;;;-2.20;4.00;;;-1.29;93.84;100771.94;5022650;28;129985;-76
2022/03/23 03:06:42;;;;;;;29.67;15.50;;;-2.20;4.50;;;-1.27;94.11;100764.56;5006119;28;127463;-75
2022/03/23 03:09:11;;;;;;;30.13;15.40;;;-2.20;5.20;;;-1.28;94.56;100765.59;5021690;28;119968;-73
2022/03/23 03:11:43;;;;;;;29.67;15.63;;;-2.20;6.10;;;-1.35;95.12;100772.75;5021369;28;119598;-74
2022/03/23 03:14:12;;;;;;;28.77;15.23;;;-2.10;10.20;;;-1.41;95.95;100757.59;5019793;28;129995;-74
2022/03/23 03:16:40;;;;;;;30.00;16.33;;;-2.00;11.30;;;-1.45;96.28;100757.97;5021156;28;129403;-72
2022/03/23 03:19:11;;;;;;;30.83;15.93;;;-2.00;12.70;;;-1.40;96.14;100765.38;5021534;28;119563;-74
2022/03/23 03:21:39;;;;;;;51.95;23.60;;;-2.10;12.10;;;-1.37;95.55;100764.13;5023936;28;119229;-73
2022/03/23 03:24:09;;;;;;;53.30;25.25;;;-2.10;12.30;;;-1.35;95.23;100768.25;5020685;28;129946;-72
2022/03/23 03:26:38;;;;;;;42.20;21.83;;;-2.20;12.30;;;-1.34;94.63;100769.06;5005979;28;128246;-76
2022/03/23 03:29:08;;;;;;;50.28;23.23;;;-2.20;12.50;;;-1.33;94.81;100765.38;5004849;28;120812;-73
2022/03/23 03:31:36;;;;;;;62.35;28.45;;;-2.30;13.10;;;-1.37;95.23;100758.81;5006103;28;121044;-73
2022/03/23 03:34:05;;;;;;;59.53;27.85;;;-2.30;13.70;;;-1.36;94.92;100755.13;5020774;28;129882;-73
2022/03/23 03:36:34;;;;;;;53.63;25.60;;;-2.30;14.00;;;-1.36;94.95;100755.94;5005826;28;129786;-75
2022/03/23 03:39:02;;;;;;;38.15;18.95;;;-2.30;14.60;;;-1.40;95.82;100759.19;5020849;28;119909;-75
2022/03/23 03:41:31;;;;;;;39.80;18.55;;;-2.20;16.60;;;-1.49;96.45;100756.72;5020972;28;119362;-76
2022/03/23 03:44:00;;;;;;;32.75;17.77;;;-2.20;19.00;;;-1.43;96.32;100759.59;5020726;28;130479;-74
2022/03/23 03:46:30;;;;;;;36.65;18.50;;;-2.20;19.50;;;-1.39;96.31;100763.50;5020954;28;129545;-72
2022/03/23 03:48:58;;;;;;;33.83;18.40;;;-2.20;19.80;;;-1.38;95.78;100759.84;5005400;28;119169;-69
2022/03/23 03:51:27;;;;;;;44.75;20.30;;;-2.30;20.10;;;-1.36;95.52;100761.25;5006111;28;118137;-72
2022/03/23 03:53:56;;;;;;;38.70;18.85;;;-2.30;20.40;;;-1.33;94.82;100760.06;5004135;28;130130;-71
2022/03/23 03:56:24;;;;;;;40.60;19.80;;;-2.30;20.70;;;-1.32;94.63;100759.03;4988841;28;128773;-70
2022/03/23 03:58:53;;;;;;;43.00;20.35;;;-2.30;20.80;;;-1.32;94.65;100756.38;5020429;28;119710;-71
2022/03/23 04:01:22;;;;;;;38.50;20.23;;;-2.40;21.40;;;-1.32;94.76;100757.19;5020336;28;119560;-70
2022/03/23 04:03:52;;;;;;;38.65;19.48;;;-2.40;21.70;;;-1.30;94.82;100755.13;5018914;28;130829;-72
2022/03/23 04:06:20;;;;;;;39.65;20.10;;;-2.30;21.90;;;-1.30;95.11;100749.81;5020467;28;130400;-70
2022/03/23 04:08:49;;;;;;;40.13;20.83;;;-2.30;22.30;;;-1.25;94.69;100751.88;5005759;28;119273;-71
2022/03/23 04:11:18;;;;;;;35.22;19.27;;;-2.30;23.10;;;-1.23;94.69;100752.50;5002790;28;119685;-70
2022/03/23 04:13:47;;;;;;;39.22;18.98;;;-2.30;23.20;;;-1.23;94.05;100749.84;5005234;28;129667;-76
2022/03/23 04:16:15;;;;;;;38.33;19.13;;;-2.30;23.30;;;-1.21;93.89;100742.44;5005189;28;129176;-74
2022/03/23 04:18:44;;;;;;;38.83;19.63;;;-2.30;23.50;;;-1.17;93.55;100740.19;5029261;27;122092;-76
2022/03/23 04:21:16;;;;;;;38.38;19.08;;;-2.30;23.40;;;-1.14;93.26;100743.28;5024587;27;120773;-72
2022/03/23 04:23:44;;;;;;;36.67;19.25;;;-2.30;23.60;;;-1.10;93.27;100741.84;5038613;27;130025;-74
2022/03/23 04:26:13;;;;;;;39.95;20.70;;;-2.20;23.80;;;-1.03;93.53;100744.50;5021679;27;129980;-73
2022/03/23 04:28:41;;;;;;;37.70;19.08;;;-2.10;23.60;;;-0.93;93.06;100742.25;5039926;27;121074;-72
2022/03/23 04:31:10;;;;;;;38.63;20.13;;;-2.10;24.00;;;-0.88;92.93;100736.31;5039983;27;119437;-75
2022/03/23 04:33:38;;;;;;;35.85;19.30;;;-2.00;24.60;;;-0.81;93.12;100746.97;4999478;27;129211;-75
2022/03/23 04:36:07;;;;;;;38.67;20.45;;;-1.90;24.60;;;-0.70;92.90;100737.53;5006584;27;128710;-74
2022/03/23 04:38:37;;;;;;;42.97;22.88;;;-1.90;24.60;;;-0.59;92.51;100737.72;5024943;27;118599;-78
2022/03/23 04:41:07;;;;;;;43.22;20.95;;;-1.80;24.50;;;-0.46;91.92;100738.75;5039716;27;119286;-77
2022/03/23 04:43:38;;;;;;;39.40;19.50;;;-1.70;24.30;;;-0.33;91.12;100740.56;5038704;27;130790;-74
2022/03/23 04:46:07;;;;;;;32.47;18.30;;;-1.70;24.00;;;-0.20;91.05;100735.19;5039939;27;129708;-75
2022/03/23 04:48:35;;;;;;;36.38;19.58;;;-1.60;23.70;;;-0.09;90.71;100729.19;5008731;27;120147;-74
2022/03/23 04:51:04;;;;;;;37.95;19.00;;;-1.40;23.30;;;0.02;90.49;100735.72;5025282;27;119167;-77
2022/03/23 04:53:34;;;;;;;37.63;18.00;;;-1.30;23.00;;;0.16;90.27;100725.81;5024736;27;129636;-77
2022/03/23 04:56:04;;;;;;;35.13;16.95;;;-1.20;22.80;;;0.31;89.88;100729.03;5039625;27;129855;-75
2022/03/23 04:58:33;;;;;;;38.03;18.38;;;-1.10;22.20;;;0.43;89.53;100720.34;5024688;27;118628;-77
2022/03/23 05:01:02;;;;;;;36.08;18.60;;;-1.00;21.70;;;0.53;89.32;100720.69;5040069;27;119519;-78
2022/03/23 05:03:30;;;;;;;36.05;19.27;;;-0.90;20.80;;;0.68;88.76;100721.19;5024143;27;131425;-78
2022/03/23 05:05:59;;;;;;;36.63;18.95;;;-0.80;19.90;;;0.82;89.00;100721.94;5008095;27;129362;-77
2022/03/23 05:08:27;;;;;;;39.88;18.75;;;-0.70;19.10;;;0.94;88.26;100716.72;5038767;27;121917;-77
2022/03/23 05:10:56;;;;;;;30.85;16.80;;;-0.60;18.20;;;1.04;87.90;100711.69;5039494;27;121998;-77
2022/03/23 05:13:26;;;;;;;36.63;17.05;;;-0.50;17.30;;;1.23;87.52;100714.41;5006973;27;129779;-78
2022/03/23 05:15:54;;;;;;;36.53;17.48;;;-0.30;16.20;;;1.39;86.83;100708.50;5024627;27;129896;-78
2022/03/23 05:18:23;;;;;;;36.63;17.23;;;-0.20;15.00;;;1.56;86.32;100713.28;5040185;27;119704;-78
2022/03/23 05:20:52;;;;;;;32.03;18.13;;;0.00;13.50;;;1.72;85.79;100706.53;5040431;27;119452;-70
2022/03/23 05:23:20;;;;;;;34.47;18.58;;;0.10;11.90;;;1.86;84.99;100707.19;5039424;27;131057;-71
2022/03/23 05:25:49;;;;;;;30.52;16.70;;;0.20;10.30;;;2.05;84.85;100700.75;5024647;27;128985;-71
2022/03/23 05:28:18;;;;;;;32.20;16.55;;;0.30;8.30;;;2.21;84.39;100703.84;5007968;27;119180;-70
2022/03/23 05:30:48;;;;;;;35.90;16.83;;;0.50;6.70;;;2.37;84.11;100708.59;5039541;27;119978;-72
2022/03/23 05:33:17;;;;;;;30.20;16.17;;;0.60;5.00;;;2.51;83.83;100693.16;5037874;27;129829;-72
2022/03/23 05:35:45;;;;;;;34.05;17.38;;;0.70;3.60;;;2.66;83.55;100700.75;5039104;27;129366;-66
2022/03/23 05:38:13;;;;;;;31.85;17.42;;;0.90;2.20;;;2.80;82.20;100704.03;5039120;27;119653;-72
2022/03/23 05:40:42;;;;;;;27.63;16.13;;;1.00;1.00;;;3.01;81.68;100697.34;5039363;27;119571;-68
2022/03/23 05:43:10;;;;;;;29.90;16.88;;;1.20;1.00;;;3.17;80.94;100704.66;5039023;27;130339;-68
2022/03/23 05:45:38;;;;;;;28.70;16.42;;;1.30;1.00;;;3.27;80.45;100700.59;5012877;27;129625;-65
2022/03/23 05:48:08;;;;;;;29.75;16.75;;;1.40;1.00;;;3.36;79.94;100691.16;5024552;27;120077;-68
2022/03/23 05:50:37;;;;;;;27.23;15.60;;;1.60;1.00;;;3.53;79.07;100694.75;5021475;27;120283;-70
2022/03/23 05:53:07;;;;;;;29.90;15.85;;;1.70;1.00;;;3.62;78.28;100692.53;5038518;27;130096;-70
2022/03/23 05:55:36;;;;;;;30.42;14.25;;;1.90;1.00;;;3.75;77.45;100686.88;5039180;27;130382;-69
2022/03/23 05:58:04;;;;;;;29.52;16.88;;;2.00;1.00;;;4.05;76.53;100690.44;5038014;27;121045;-69
2022/03/23 06:00:34;;;;;;;38.47;21.35;;;2.20;1.00;;;4.19;75.51;100686.44;5036164;27;122444;-70
2022/03/23 06:03:02;;;;;;;35.25;20.27;;;2.40;1.00;;;4.44;75.33;100682.56;5038737;27;130182;-68
2022/03/23 06:05:32;;;;;;;32.30;16.25;;;2.60;1.00;;;4.67;74.15;100685.13;5038461;27;129819;-65
2022/03/23 06:08:01;;;;;;;28.48;15.45;;;2.70;1.00;;;4.86;73.00;100682.19;5039182;27;121402;-67
2022/03/23 06:10:29;;;;;;;33.35;16.27;;;2.90;1.00;;;5.02;72.22;100681.38;5024426;27;119163;-68
2022/03/23 06:12:58;;;;;;;28.98;16.15;;;3.10;1.00;;;5.18;71.38;100673.53;5030165;27;129723;-69
2022/03/23 06:15:26;;;;;;;26.73;15.75;;;3.20;1.00;;;5.31;71.05;100669.69;5024713;28;130311;-67
2022/03/23 06:17:55;;;;;;;27.80;14.93;;;3.40;1.00;;;5.51;69.44;100679.91;5022308;28;119161;-68
2022/03/23 06:20:23;;;;;;;24.85;14.23;;;3.60;1.00;;;5.71;68.28;100669.41;5022266;28;119508;-70
2022/03/23 06:22:53;;;;;;;18.70;12.30;;;3.80;1.00;;;5.87;67.51;100656.13;5002733;28;129948;-69
2022/03/23 06:25:24;;;;;;;21.52;11.85;;;3.90;1.00;;;6.07;66.42;100664.47;5023359;28;129065;-69
2022/03/23 06:27:53;;;;;;;20.90;12.13;;;4.10;1.00;;;6.26;65.32;100664.13;5031348;27;119548;-69
2022/03/23 06:30:22;;;;;;;21.88;11.43;;;4.30;1.00;;;6.49;64.95;100652.22;5041547;27;119510;-68
2022/03/23 06:32:50;;;;;;;37.67;18.10;;;4.50;1.00;;;6.70;63.18;100647.84;5041962;27;129794;-67
2022/03/23 06:35:19;;;;;;;48.88;20.83;;;4.70;1.00;;;6.90;62.04;100657.13;5041883;27;129291;-68
2022/03/23 06:37:48;;;;;;;27.95;14.57;;;4.80;1.00;;;7.05;61.43;100649.16;5042053;27;119281;-69
2022/03/23 06:40:18;;;;;;;33.60;16.83;;;5.00;1.00;;;7.22;60.90;100653.59;5026901;27;119487;-67
2022/03/23 06:42:48;;;;;;;42.75;17.65;;;5.20;1.00;;;7.39;59.95;100643.44;5041613;27;129762;-69
2022/03/23 06:45:17;;;;;;;35.97;16.13;;;5.40;1.00;;;7.54;59.36;100646.22;5026521;27;128023;-70
2022/03/23 06:47:45;;;;;;;41.17;19.15;;;5.50;1.00;;;7.55;58.92;100647.00;5040475;27;122412;-70
2022/03/23 06:50:14;;;;;;;36.00;19.38;;;5.60;1.00;;;7.84;58.75;100646.59;5041944;27;122716;-70
2022/03/23 06:52:42;;;;;;;39.67;21.15;;;5.80;1.00;;;8.06;58.34;100635.59;5026327;27;129147;-69
2022/03/23 06:55:11;;;;;;;32.92;22.30;;;6.00;1.00;;;8.32;58.17;100631.03;5044257;27;129477;-68
2022/03/23 06:57:43;;;;;;;43.05;24.83;;;6.20;1.00;;;8.51;57.66;100630.50;5041733;27;119845;-66
2022/03/23 07:00:14;;;;;;;48.80;29.70;;;6.40;1.00;;;8.60;57.38;100628.91;5032539;27;119645;-68
2022/03/23 07:02:44;;;;;;;46.58;31.40;;;6.50;1.00;;;8.69;57.18;100637.28;5021339;27;130570;-69
2022/03/23 07:05:16;;;;;;;41.40;30.13;;;6.70;1.00;;;8.90;57.00;100627.28;5021544;28;129572;-69
2022/03/23 07:10:28;;;;;;;42.97;30.92;;;7.00;1.00;;;9.22;55.67;100629.63;5022681;28;120159;-69
2022/03/23 07:12:59;;;;;;;40.50;30.08;;;7.20;1.00;;;9.51;54.97;100623.59;5024048;28;129347;-69
2022/03/23 07:15:28;;;;;;;36.33;26.75;;;7.40;1.00;;;9.64;53.96;100620.28;5028489;28;128883;-69
2022/03/23 07:17:57;;;;;;;72.18;47.30;;;7.60;1.00;;;9.70;53.57;100616.47;5013016;28;119372;-65
2022/03/23 07:20:27;;;;;;;59.83;39.38;;;7.70;1.00;;;9.72;53.22;100621.59;5027454;28;118871;-69
2022/03/23 07:22:55;;;;;;;59.05;39.72;;;7.90;1.00;;;9.94;52.59;100617.72;5025243;28;130350;-67
2022/03/23 07:25:24;;;;;;;46.42;30.90;;;8.00;1.00;;;10.21;52.06;100614.56;5021539;28;129735;-69
2022/03/23 07:27:53;;;;;;;32.95;21.83;;;8.20;1.00;;;10.47;50.87;100617.13;5006428;28;119848;-71
2022/03/23 07:30:23;;;;;;;25.55;15.50;;;8.50;1.00;;;10.60;50.23;100608.34;5022254;28;119342;-68
2022/03/23 07:32:53;;;;;;;21.83;13.20;;;8.60;1.00;;;10.93;49.42;100605.88;5020376;28;130444;-68
2022/03/23 07:35:22;;;;;;;23.13;11.98;;;8.90;1.00;;;11.04;48.42;100593.81;5005400;28;129206;-69
2022/03/23 07:37:50;;;;;;;23.00;10.10;;;9.00;1.00;;;11.23;47.25;100596.56;5019551;28;121839;-70
2022/03/23 07:40:19;;;;;;;20.70;8.35;;;9.30;1.00;;;11.52;46.63;100595.72;5020787;28;122008;-67
2022/03/23 07:42:47;;;;;;;17.63;7.70;;;9.50;1.00;;;11.64;45.76;100584.41;5020332;28;129823;-70
2022/03/23 07:45:16;;;;;;;19.73;7.85;;;9.70;1.00;;;11.76;45.08;100587.50;5020814;28;130019;-70
2022/03/23 07:47:47;;;;;;;17.38;6.88;;;9.90;1.00;;;11.95;44.60;100581.28;5020261;28;120174;-68
2022/03/23 07:50:16;;;;;;;15.63;6.43;;;10.10;1.00;;;12.01;44.09;100574.69;5021058;28;119999;-69
2022/03/23 07:52:45;;;;;;;19.70;8.30;;;10.20;1.00;;;12.22;44.17;100576.00;5020264;28;130187;-68
2022/03/23 07:55:14;;;;;;;19.83;7.75;;;10.40;1.00;;;12.46;44.13;100569.63;5031460;27;129421;-69
2022/03/23 07:57:43;;;;;;;18.45;7.90;;;10.50;1.00;;;12.57;44.06;100573.81;5028961;27;119630;-70
2022/03/23 08:00:14;;;;;;;17.13;7.28;;;10.60;1.00;;;12.77;42.49;100569.09;5040081;27;121123;-68
2022/03/23 08:02:45;;;;;;;19.23;7.72;;;10.80;1.00;;;12.97;42.31;100562.47;5041641;27;130359;-70
2022/03/23 08:05:14;;;;;;;17.25;7.68;;;11.00;1.00;;;13.01;41.88;100565.38;5040358;27;129597;-67
2022/03/23 08:07:43;;;;;;;20.10;8.80;;;11.10;1.00;;;13.01;41.68;100565.38;5022245;27;119712;-69
2022/03/23 08:10:11;;;;;;;19.50;9.73;;;11.10;1.00;;;13.25;41.67;100557.81;5025412;27;119121;-70
2022/03/23 08:12:40;;;;;;;14.82;8.18;;;11.20;1.00;;;13.47;41.34;100553.59;5040130;27;130371;-69
2022/03/23 08:15:10;;;;;;;17.25;7.53;;;11.40;1.00;;;13.63;40.80;100552.16;5040272;27;130185;-70
2022/03/23 08:17:39;;;;;;;21.27;8.30;;;11.50;1.00;;;13.78;40.45;100544.75;5017414;27;119352;-72
2022/03/23 08:22:59;;;;;;;19.17;8.00;;;11.70;1.00;;;13.81;39.66;100542.22;5039883;27;130085;-69
2022/03/23 08:25:28;;;;;;;18.23;8.15;;;11.80;1.00;;;14.01;39.91;100540.94;5025257;27;129004;-70
2022/03/23 08:27:58;;;;;;;12.07;6.90;;;12.00;1.00;;;14.12;38.36;100541.50;5039072;27;122782;-70
2022/03/23 08:30:29;;;;;;;12.98;7.32;;;12.10;1.00;;;14.05;38.46;100530.19;5040550;27;122256;-71
2022/03/23 08:32:58;;;;;;;14.18;6.90;;;12.20;1.00;;;14.19;38.47;100533.69;5040303;27;130262;-69
2022/03/23 08:35:28;;;;;;;11.68;6.28;;;12.30;1.00;;;14.24;37.98;100526.47;5040118;27;129238;-64
2022/03/23 08:38:00;;;;;;;14.75;7.65;;;12.30;1.00;;;14.45;38.50;100521.31;5041942;27;119857;-70
2022/03/23 08:40:29;;;;;;;13.50;7.60;;;12.50;1.00;;;14.31;38.10;100524.94;5023319;27;119002;-71
2022/03/23 08:42:59;;;;;;;19.33;7.28;;;12.50;1.00;;;14.59;37.92;100527.50;5040791;27;129993;-67
2022/03/23 08:45:29;;;;;;;13.80;7.57;;;12.60;1.00;;;14.56;37.16;100517.19;5041450;27;129329;-71
2022/03/23 08:48:00;;;;;;;14.30;7.38;;;12.60;1.00;;;14.56;38.05;100519.94;5041868;27;119695;-71
2022/03/23 08:50:30;;;;;;;15.55;7.40;;;12.60;1.00;;;14.54;37.40;100519.44;5040106;27;119472;-70
2022/03/23 08:53:00;;;;;;;13.85;6.93;;;12.70;1.00;;;14.65;37.41;100512.63;5038496;27;129953;-70
2022/03/23 08:55:29;;;;;;;13.63;7.18;;;12.70;1.00;;;14.97;37.35;100513.38;5039701;27;129401;-70
2022/03/23 08:57:58;;;;;;;13.52;6.22;;;12.90;1.00;;;14.92;37.77;100513.53;5042348;27;119417;-71
2022/03/23 09:00:27;;;;;;;12.88;7.05;;;12.80;1.00;;;14.80;37.59;100516.06;5043025;27;119638;-70
2022/03/23 09:02:56;;;;;;;25.88;13.18;;;12.80;1.00;;;14.89;37.71;100504.03;5028801;27;130698;-68
2022/03/23 09:05:25;;;;;;;10.73;6.28;;;12.90;1.00;;;15.12;37.07;100494.97;5024404;27;129445;-70
2022/03/23 09:07:54;;;;;;;14.10;7.78;;;13.10;1.00;;;14.89;36.98;100497.75;5041005;27;119737;-70
2022/03/23 09:10:24;;;;;;;12.52;7.03;;;13.00;1.00;;;14.82;37.48;100500.13;5026036;27;119116;-69
2022/03/23 09:12:53;;;;;;;14.13;7.72;;;12.80;1.00;;;14.64;38.35;100491.88;5025937;27;129873;-70
2022/03/23 09:15:23;;;;;;;14.80;6.60;;;12.80;1.00;;;14.88;37.65;100490.69;5041404;27;128803;-70
2022/03/23 09:17:51;;;;;;;12.32;7.13;;;13.00;1.00;;;14.99;37.28;100486.56;5024235;27;121948;-71
2022/03/23 09:20:20;;;;;;;11.27;7.10;;;13.10;1.00;;;14.94;37.46;100483.94;5038010;27;122974;-70
2022/03/23 09:22:49;;;;;;;10.93;6.25;;;13.10;1.00;;;15.12;37.49;100473.09;5039145;27;130161;-69
2022/03/23 09:25:22;;;;;;;12.27;6.97;;;13.20;1.00;;;15.35;36.98;100477.31;5038865;27;129884;-70
2022/03/23 09:27:51;;;;;;;15.07;8.13;;;13.30;1.00;;;15.29;37.35;100478.59;5039298;27;119505;-70
2022/03/23 09:30:21;;;;;;;13.32;7.32;;;13.40;1.00;;;15.44;37.26;100469.91;5039616;27;119760;-71
2022/03/23 09:32:50;;;;;;;16.15;7.38;;;13.60;1.00;;;15.41;36.94;100464.25;5038960;27;129954;-69
2022/03/23 09:35:19;;;;;;;13.90;7.38;;;13.60;1.00;;;15.41;37.14;100454.16;5039341;27;129604;-71
2022/03/23 09:37:50;;;;;;;14.38;7.32;;;13.60;1.00;;;15.36;37.04;100457.00;5039491;27;119771;-70
2022/03/23 09:40:24;;;;;;;12.38;7.65;;;13.60;1.00;;;15.25;36.97;100439.31;5039696;27;119518;-71
2022/03/23 09:42:53;;;;;;;17.75;8.70;;;13.60;1.00;;;15.39;36.74;100437.22;5037930;27;129864;-75
2022/03/23 09:45:35;;;;;;;13.75;7.63;;;13.70;1.00;;;15.32;37.10;100434.19;5041883;27;129386;-70
2022/03/23 09:48:09;;;;;;;15.07;7.63;;;13.70;1.00;;;15.27;36.84;100431.63;5039158;27;120038;-71
2022/03/23 09:50:40;;;;;;;16.38;7.90;;;13.60;1.00;;;15.42;36.57;100438.53;5039017;27;119483;-71
2022/03/23 09:53:09;;;;;;;20.30;8.68;;;13.80;1.00;;;15.64;36.66;100430.16;5038970;27;129841;-72
2022/03/23 09:55:39;;;;;;;18.38;8.43;;;14.00;1.00;;;15.80;36.11;100425.03;5038781;27;129430;-71
2022/03/23 09:58:08;;;;;;;13.82;7.82;;;14.00;1.00;;;15.78;36.11;100426.47;5039168;27;119684;-71
2022/03/23 10:00:39;;;;;;;16.83;8.35;;;14.00;1.00;;;15.78;36.48;100419.09;5039935;27;119387;-70
2022/03/23 10:04:01;;;;;;;13.95;7.35;;;14.10;1.00;;;15.77;35.83;100417.47;5039034;27;130411;-70
2022/03/23 10:07:06;;;;;;;17.08;8.30;;;14.00;1.00;;;15.64;36.06;100407.47;5000675;27;129242;-68
2022/03/23 10:10:31;;;;;;;18.95;8.27;;;13.90;1.00;;;15.81;35.64;100402.00;5038026;27;122136;-70
2022/03/23 10:13:59;;;;;;;15.70;7.93;;;14.10;1.00;;;15.85;36.07;100396.69;5041548;27;122374;-73
2022/03/23 10:17:16;;;;;;;15.90;7.50;;;14.20;1.00;;;15.92;36.37;100385.25;5033320;27;130054;-70
2022/03/23 10:19:45;;;;;;;15.90;7.73;;;14.20;1.00;;;16.31;35.79;100373.19;5020853;27;129769;-68
2022/03/23 10:22:15;;;;;;;17.50;8.82;;;14.50;1.00;;;16.51;35.44;100382.59;5023347;27;118455;-71
2022/03/23 10:24:44;;;;;;;16.83;7.88;;;14.60;1.00;;;16.57;34.65;100379.69;5042131;27;118769;-70
2022/03/23 10:27:17;;;;;;;15.82;8.45;;;14.70;1.00;;;16.61;34.59;100372.41;5038834;27;129895;-64
2022/03/23 10:29:49;;;;;;;21.85;8.32;;;14.70;1.00;;;16.49;34.27;100360.22;5039306;27;129111;-68
2022/03/23 10:32:21;;;;;;;16.40;8.30;;;14.70;1.00;;;16.58;34.40;100368.41;5038907;27;119522;-69